createdAt,value
2023-02-15T00:02:03.341Z,46.57
2023-02-15T00:04:47.182Z,44.40
2023-02-15T00:07:19.761Z,46.40
2023-02-15T00:09:50.089Z,47.33
2023-02-15T00:12:17.573Z,43.03
2023-02-15T00:14:44.865Z,44.73
2023-02-15T00:17:12.159Z,44.17
2023-02-15T00:19:39.325Z,37.83
2023-02-15T00:22:06.487Z,49.37
2023-02-15T00:24:33.865Z,49.00
2023-02-15T00:27:00.922Z,49.77
2023-02-15T00:29:29.054Z,45.43
2023-02-15T00:31:56.302Z,37.53
2023-02-15T00:34:27.990Z,56.57
2023-02-15T00:36:57.605Z,39.60
2023-02-15T00:39:25.314Z,38.43
2023-02-15T00:41:52.229Z,45.30
2023-02-15T00:44:19.322Z,49.10
2023-02-15T00:46:46.376Z,82.60
2023-02-15T00:49:13.392Z,50.83
2023-02-15T00:51:40.578Z,43.80
2023-02-15T00:54:07.954Z,47.30
2023-02-15T00:56:34.974Z,43.07
2023-02-15T00:59:02.100Z,60.30
2023-02-15T01:01:29.177Z,44.47
2023-02-15T01:03:56.355Z,57.63
2023-02-15T01:06:23.315Z,57.87
2023-02-15T01:08:50.380Z,49.40
2023-02-15T01:11:24.485Z,47.73
2023-02-15T01:13:57.399Z,57.43
2023-02-15T01:16:27.184Z,94.23
2023-02-15T01:18:55.751Z,58.07
2023-02-15T01:21:26.060Z,55.30
2023-02-15T01:23:53.274Z,42.90
2023-02-15T01:26:20.294Z,49.10
2023-02-15T01:28:47.827Z,57.60
2023-02-15T01:31:18.250Z,64.50
2023-02-15T01:33:47.329Z,45.90
2023-02-15T01:36:15.418Z,50.67
2023-02-15T01:38:42.918Z,45.97
2023-02-15T01:41:25.515Z,46.13
2023-02-15T01:43:55.539Z,50.93
2023-02-15T01:46:44.320Z,49.43
2023-02-15T01:49:20.714Z,46.97
2023-02-15T01:51:49.496Z,53.30
2023-02-15T01:54:25.585Z,52.47
2023-02-15T01:56:55.247Z,35.87
2023-02-15T01:59:24.140Z,39.27
2023-02-15T02:01:53.603Z,42.20
2023-02-15T02:04:31.040Z,40.47
2023-02-15T02:06:58.831Z,38.83
2023-02-15T02:09:26.195Z,50.83
2023-02-15T02:11:55.374Z,47.30
2023-02-15T02:14:23.362Z,37.43
2023-02-15T02:16:56.213Z,59.47
2023-02-15T02:19:27.899Z,62.07
2023-02-15T02:22:14.016Z,83.57
2023-02-15T02:25:07.422Z,57.87
2023-02-15T02:28:04.038Z,58.83
2023-02-15T02:30:45.915Z,47.17
2023-02-15T02:33:22.367Z,78.80
2023-02-15T02:35:55.597Z,59.87
2023-02-15T02:38:40.065Z,61.80
2023-02-15T02:41:19.568Z,61.17
2023-02-15T02:44:16.644Z,50.57
2023-02-15T02:47:25.146Z,59.13
2023-02-15T02:50:01.870Z,69.30
2023-02-15T02:52:45.187Z,78.87
2023-02-15T02:55:18.605Z,61.53
2023-02-15T02:58:06.237Z,58.43
2023-02-15T03:00:37.738Z,54.97
2023-02-15T03:03:10.212Z,56.60
2023-02-15T03:05:41.641Z,56.53
2023-02-15T03:08:10.905Z,48.00
2023-02-15T03:10:40.291Z,35.07
2023-02-15T03:13:07.964Z,44.57
2023-02-15T03:15:57.952Z,58.03
2023-02-15T03:18:35.497Z,51.87
2023-02-15T03:21:03.336Z,57.00
2023-02-15T03:23:31.586Z,40.93
2023-02-15T03:26:03.441Z,50.27
2023-02-15T03:28:39.636Z,62.50
2023-02-15T03:31:08.432Z,52.83
2023-02-15T03:33:39.006Z,45.70
2023-02-15T03:36:19.936Z,52.27
2023-02-15T03:39:00.854Z,55.93
2023-02-15T03:41:35.433Z,46.27
2023-02-15T03:44:14.514Z,42.40
2023-02-15T03:46:46.415Z,48.10
2023-02-15T03:49:17.281Z,54.87
2023-02-15T03:51:46.537Z,54.97
2023-02-15T03:54:40.123Z,57.40
2023-02-15T03:57:38.481Z,61.90
2023-02-15T04:00:30.384Z,42.27
2023-02-15T04:03:23.985Z,39.70
2023-02-15T04:05:51.599Z,48.97
2023-02-15T04:08:18.951Z,46.83
2023-02-15T04:10:56.962Z,54.93
2023-02-15T04:13:31.889Z,42.37
2023-02-15T04:16:06.361Z,40.10
2023-02-15T04:18:54.959Z,37.93
2023-02-15T04:21:41.925Z,37.60
2023-02-15T04:24:28.744Z,36.00
2023-02-15T04:26:56.818Z,56.73
2023-02-15T04:29:25.286Z,38.13
2023-02-15T04:31:54.115Z,37.20
2023-02-15T04:34:21.655Z,34.13
2023-02-15T04:36:49.114Z,41.67
2023-02-15T04:39:17.750Z,32.80
2023-02-15T04:41:45.652Z,41.80
2023-02-15T04:44:13.041Z,38.20
2023-02-15T04:46:40.395Z,39.33
2023-02-15T04:49:08.812Z,31.57
2023-02-15T04:51:36.193Z,30.40
2023-02-15T04:54:03.565Z,42.83
2023-02-15T04:56:31.090Z,42.37
2023-02-15T04:58:58.627Z,36.43
2023-02-15T05:01:26.062Z,35.80
2023-02-15T05:03:53.509Z,44.13
2023-02-15T05:06:20.847Z,35.20
2023-02-15T05:08:48.183Z,49.83
2023-02-15T05:11:15.533Z,58.00
2023-02-15T05:13:42.998Z,50.30
2023-02-15T05:16:10.403Z,40.90
2023-02-15T05:18:37.832Z,50.83
2023-02-15T05:21:05.465Z,38.07
2023-02-15T05:23:32.808Z,41.23
2023-02-15T05:26:18.991Z,42.53
2023-02-15T05:28:46.342Z,53.07
2023-02-15T05:31:15.632Z,45.00
2023-02-15T05:33:43.365Z,48.67
2023-02-15T05:36:11.128Z,55.03
2023-02-15T05:38:38.644Z,42.30
2023-02-15T05:41:07.310Z,43.90
2023-02-15T05:43:35.058Z,44.83
2023-02-15T05:46:03.526Z,47.30
2023-02-15T05:48:31.444Z,57.57
2023-02-15T05:51:04.556Z,48.70
2023-02-15T05:53:34.076Z,58.30
2023-02-15T05:56:03.435Z,52.40
2023-02-15T05:58:33.446Z,43.27
2023-02-15T06:01:01.107Z,48.60
2023-02-15T06:03:29.753Z,48.27
2023-02-15T06:05:57.200Z,43.77
2023-02-15T06:08:24.514Z,50.67
2023-02-15T06:10:51.839Z,74.33
2023-02-15T06:13:19.187Z,57.87
2023-02-15T06:15:46.573Z,58.13
2023-02-15T06:18:14.069Z,48.83
2023-02-15T06:20:41.417Z,48.03
2023-02-15T06:23:08.812Z,49.90
2023-02-15T06:25:36.627Z,54.77
2023-02-15T06:28:04.734Z,78.83
2023-02-15T06:30:32.568Z,44.37
2023-02-15T06:32:59.698Z,46.63
2023-02-15T06:35:27.112Z,38.63
2023-02-15T06:37:54.100Z,32.47
2023-02-15T06:40:21.513Z,56.30
2023-02-15T06:42:49.139Z,38.43
2023-02-15T06:45:16.625Z,37.17
2023-02-15T06:47:43.623Z,38.10
2023-02-15T06:50:11.581Z,41.37
2023-02-15T06:52:39.036Z,46.97
2023-02-15T06:55:07.178Z,33.10
2023-02-15T06:57:34.593Z,103.87
2023-02-15T07:00:02.261Z,39.03
2023-02-15T07:02:29.863Z,47.27
2023-02-15T07:04:57.279Z,43.87
2023-02-15T07:07:24.749Z,40.40
2023-02-15T07:09:52.284Z,48.63
2023-02-15T07:12:38.119Z,41.80
2023-02-15T07:15:07.668Z,45.40
2023-02-15T07:17:36.493Z,36.83
2023-02-15T07:20:09.636Z,56.10
2023-02-15T07:22:38.160Z,75.63
2023-02-15T07:25:07.803Z,50.37
2023-02-15T07:27:35.245Z,38.30
2023-02-15T07:30:02.904Z,41.53
2023-02-15T07:32:32.001Z,39.70
2023-02-15T07:35:00.030Z,28.20
2023-02-15T07:37:28.032Z,36.23
2023-02-15T07:39:55.468Z,30.07
2023-02-15T07:42:23.081Z,40.83
2023-02-15T07:44:51.016Z,45.87
2023-02-15T07:47:18.436Z,37.77
2023-02-15T07:49:46.175Z,30.37
2023-02-15T07:52:13.467Z,44.53
2023-02-15T07:54:40.895Z,42.67
2023-02-15T07:57:08.252Z,40.47
2023-02-15T07:59:35.603Z,43.10
2023-02-15T08:02:03.408Z,40.10
2023-02-15T08:04:30.773Z,44.23
2023-02-15T08:06:58.111Z,37.20
2023-02-15T08:09:25.477Z,35.10
2023-02-15T08:11:52.843Z,34.83
2023-02-15T08:14:23.026Z,36.30
2023-02-15T08:16:56.733Z,27.70
2023-02-15T08:19:29.607Z,40.57
2023-02-15T08:22:05.668Z,44.80
2023-02-15T08:24:35.680Z,51.93
2023-02-15T08:27:06.188Z,46.20
2023-02-15T08:29:35.642Z,45.37
2023-02-15T08:32:08.370Z,46.63
2023-02-15T08:34:39.234Z,37.27
2023-02-15T08:37:06.990Z,25.27
2023-02-15T08:39:34.716Z,26.63
2023-02-15T08:42:02.089Z,29.00
2023-02-15T08:44:29.696Z,28.20
2023-02-15T08:47:03.482Z,26.33
2023-02-15T08:49:30.866Z,26.70
2023-02-15T08:51:58.368Z,19.17
2023-02-15T08:54:25.867Z,23.87
2023-02-15T08:56:53.386Z,20.30
2023-02-15T08:59:23.432Z,25.60
2023-02-15T09:01:52.583Z,30.73
2023-02-15T09:04:21.066Z,22.40
2023-02-15T09:06:49.782Z,19.60
2023-02-15T09:09:18.375Z,22.70
2023-02-15T09:11:47.895Z,19.20
2023-02-15T09:14:21.191Z,27.57
2023-02-15T09:16:50.844Z,17.13
2023-02-15T09:19:19.633Z,21.00
2023-02-15T09:21:47.220Z,23.50
2023-02-15T09:24:16.492Z,27.20
2023-02-15T09:26:46.185Z,22.73
2023-02-15T09:29:14.121Z,23.77
2023-02-15T09:31:45.213Z,31.93
2023-02-15T09:34:14.326Z,28.53
2023-02-15T09:36:42.392Z,26.03
2023-02-15T09:39:21.604Z,20.67
2023-02-15T09:42:10.666Z,18.70
2023-02-15T09:45:16.644Z,23.90
2023-02-15T09:51:31.462Z,16.97
2023-02-15T09:54:17.581Z,18.43
2023-02-15T09:56:56.698Z,19.83
2023-02-15T09:59:34.917Z,22.17
2023-02-15T10:02:39.766Z,18.50
2023-02-15T10:05:20.753Z,23.17
2023-02-15T10:08:05.228Z,26.53
2023-02-15T10:10:54.191Z,24.17
2023-02-15T10:13:42.729Z,28.20
2023-02-15T10:16:19.597Z,18.23
2023-02-15T10:19:09.113Z,18.87
2023-02-15T10:21:41.350Z,19.20
2023-02-15T10:24:40.258Z,21.00
2023-02-15T10:27:18.185Z,26.20
2023-02-15T10:30:03.602Z,21.07
2023-02-15T10:32:36.277Z,22.13
2023-02-15T10:35:21.520Z,17.97
2023-02-15T10:37:54.637Z,20.83
2023-02-15T10:40:33.960Z,19.43
2023-02-15T10:43:27.532Z,20.10
2023-02-15T10:46:17.606Z,21.13
2023-02-15T10:49:15.046Z,25.13
2023-02-15T10:52:05.142Z,17.63
2023-02-15T10:54:45.102Z,17.70
2023-02-15T10:57:21.715Z,20.57
2023-02-15T10:59:57.051Z,16.87
2023-02-15T11:02:35.463Z,20.63
2023-02-15T11:05:23.975Z,17.23
2023-02-15T11:07:53.974Z,20.13
2023-02-15T11:10:27.147Z,22.87
2023-02-15T11:12:54.962Z,20.10
2023-02-15T11:15:45.576Z,21.50
2023-02-15T11:18:14.541Z,19.70
2023-02-15T11:20:44.957Z,17.87
2023-02-15T11:23:17.255Z,18.77
2023-02-15T11:25:47.071Z,22.10
2023-02-15T11:28:31.966Z,18.60
2023-02-15T11:31:01.824Z,22.60
2023-02-15T11:33:32.832Z,17.47
2023-02-15T11:36:32.370Z,19.20
2023-02-15T11:39:12.282Z,20.87
2023-02-15T11:41:43.403Z,17.50
2023-02-15T11:44:20.429Z,16.70
2023-02-15T11:46:47.862Z,17.27
2023-02-15T11:49:35.205Z,25.13
2023-02-15T11:52:11.936Z,13.87
2023-02-15T11:54:42.973Z,15.13
2023-02-15T11:57:32.194Z,18.20
2023-02-15T12:00:12.513Z,15.23
2023-02-15T12:02:43.472Z,17.20
2023-02-15T12:05:14.886Z,24.50
2023-02-15T12:07:48.391Z,20.60
2023-02-15T12:10:23.726Z,16.73
2023-02-15T12:13:14.290Z,17.00
2023-02-15T12:15:57.116Z,21.67
2023-02-15T12:18:40.402Z,16.27
2023-02-15T12:21:14.524Z,18.90
2023-02-15T12:23:52.221Z,19.27
2023-02-15T12:26:30.886Z,23.40
2023-02-15T12:29:03.256Z,15.40
2023-02-15T12:31:40.487Z,19.00
2023-02-15T12:34:24.004Z,18.70
2023-02-15T12:37:01.174Z,17.60
2023-02-15T12:39:30.883Z,21.43
2023-02-15T12:42:17.507Z,24.00
2023-02-15T12:44:58.911Z,20.40
2023-02-15T12:47:30.690Z,19.17
2023-02-15T12:50:24.615Z,20.37
2023-02-15T12:53:03.608Z,17.63
2023-02-15T12:55:31.768Z,20.57
2023-02-15T12:58:20.195Z,16.23
2023-02-15T13:00:48.292Z,16.30
2023-02-15T13:03:24.946Z,16.30
2023-02-15T13:05:54.620Z,15.80
2023-02-15T13:08:26.870Z,16.97
2023-02-15T13:11:05.260Z,19.10
2023-02-15T13:13:35.355Z,21.10
2023-02-15T13:16:08.637Z,14.63
2023-02-15T13:18:47.016Z,14.80
2023-02-15T13:21:20.676Z,19.90
2023-02-15T13:23:51.949Z,14.40
2023-02-15T13:26:24.814Z,15.83
2023-02-15T13:28:56.101Z,14.47
2023-02-15T13:31:26.488Z,19.27
2023-02-15T13:34:22.109Z,17.83
2023-02-15T13:37:04.832Z,17.07
2023-02-15T13:39:45.578Z,17.23
2023-02-15T13:42:23.398Z,14.20
2023-02-15T13:45:09.240Z,18.50
2023-02-15T13:47:57.218Z,18.90
2023-02-15T13:50:36.481Z,21.50
2023-02-15T13:53:25.725Z,25.83
2023-02-15T13:56:03.894Z,17.20
2023-02-15T13:58:55.834Z,15.17
2023-02-15T14:01:35.573Z,14.50
2023-02-15T14:04:38.164Z,13.00
2023-02-15T14:07:19.926Z,13.87
2023-02-15T14:10:12.135Z,19.23
2023-02-15T14:13:10.125Z,17.40
2023-02-15T14:15:43.621Z,14.83
2023-02-15T14:18:43.258Z,15.10
2023-02-15T14:21:19.795Z,16.83
2023-02-15T14:24:02.119Z,14.20
2023-02-15T14:26:47.895Z,28.67
2023-02-15T14:29:37.602Z,17.93
2023-02-15T14:32:11.709Z,19.97
2023-02-15T14:34:58.929Z,28.40
2023-02-15T14:37:39.451Z,16.97
2023-02-15T14:40:52.140Z,19.03
2023-02-15T14:43:49.880Z,28.90
2023-02-15T14:46:26.769Z,22.37
2023-02-15T14:48:58.912Z,16.33
2023-02-15T14:51:41.317Z,15.53
2023-02-15T14:54:18.652Z,18.20
2023-02-15T14:57:04.359Z,17.50
2023-02-15T14:59:37.709Z,15.40
2023-02-15T15:02:08.071Z,15.10
2023-02-15T15:04:35.407Z,15.20
2023-02-15T15:07:18.212Z,20.70
2023-02-15T15:09:50.014Z,14.70
2023-02-15T15:12:23.284Z,21.33
2023-02-15T15:14:51.480Z,24.20
2023-02-15T15:17:33.976Z,19.80
2023-02-15T15:20:36.923Z,22.93
2023-02-15T15:23:16.422Z,17.10
2023-02-15T15:25:47.717Z,17.80
2023-02-15T15:28:44.279Z,19.23
2023-02-15T15:32:01.112Z,15.37
2023-02-15T15:35:02.026Z,18.50
2023-02-15T15:37:32.183Z,14.30
2023-02-15T15:40:30.333Z,20.47
2023-02-15T15:43:33.944Z,14.53
2023-02-15T15:46:35.711Z,17.33
2023-02-15T15:49:13.901Z,17.70
2023-02-15T15:51:43.586Z,17.03
2023-02-15T15:54:17.388Z,19.63
2023-02-15T15:56:48.866Z,22.70
2023-02-15T15:59:23.829Z,16.03
2023-02-15T16:01:51.581Z,14.33
2023-02-15T16:04:28.100Z,26.20
2023-02-15T16:06:55.502Z,29.70
2023-02-15T16:09:27.908Z,28.23
2023-02-15T16:12:02.673Z,24.57
2023-02-15T16:14:37.620Z,23.80
2023-02-15T16:17:32.631Z,21.73
2023-02-15T16:20:20.242Z,22.17
2023-02-15T16:22:49.347Z,30.63
2023-02-15T16:25:44.295Z,27.47
2023-02-15T16:28:13.489Z,26.63
2023-02-15T16:30:43.055Z,23.27
2023-02-15T16:33:10.549Z,39.20
2023-02-15T16:35:53.662Z,28.17
2023-02-15T16:38:42.767Z,41.07
2023-02-15T16:41:12.409Z,43.80
2023-02-15T16:43:43.047Z,35.73
2023-02-15T16:46:32.537Z,32.20
2023-02-15T16:49:03.509Z,33.57
2023-02-15T16:51:33.171Z,37.40
2023-02-15T16:54:07.078Z,41.23
2023-02-15T16:56:34.989Z,52.07
2023-02-15T16:59:04.284Z,39.70
2023-02-15T17:01:33.269Z,42.20
2023-02-15T17:04:33.294Z,41.43
2023-02-15T17:07:21.129Z,48.10
2023-02-15T17:09:56.536Z,43.50
2023-02-15T17:12:42.382Z,47.00
2023-02-15T17:15:29.329Z,49.30
2023-02-15T17:18:13.553Z,43.73
2023-02-15T17:20:43.333Z,28.13
2023-02-15T17:23:43.743Z,45.03
2023-02-15T17:26:26.935Z,48.20
2023-02-15T17:29:31.988Z,35.80
2023-02-15T17:32:00.020Z,43.70
2023-02-15T17:35:04.310Z,32.40
2023-02-15T17:37:37.744Z,26.60
2023-02-15T17:40:20.404Z,32.93
2023-02-15T17:42:48.011Z,37.60
2023-02-15T17:45:15.730Z,36.40
2023-02-15T17:47:43.796Z,31.20
2023-02-15T17:50:26.040Z,33.47
2023-02-15T17:52:54.763Z,32.53
2023-02-15T17:55:35.751Z,43.63
2023-02-15T17:58:06.489Z,159.67
2023-02-15T18:00:58.653Z,61.83
2023-02-15T18:03:48.236Z,39.73
2023-02-15T18:06:34.500Z,42.83
2023-02-15T18:09:20.289Z,33.57
2023-02-15T18:11:49.585Z,51.43
2023-02-15T18:14:16.988Z,34.83
2023-02-15T18:16:45.794Z,35.63
2023-02-15T18:19:25.521Z,39.87
2023-02-15T18:21:55.719Z,48.37
2023-02-15T18:24:25.855Z,38.53
2023-02-15T18:26:54.898Z,41.83
2023-02-15T18:29:22.324Z,30.40
2023-02-15T18:31:53.431Z,39.37
2023-02-15T18:34:36.302Z,30.10
2023-02-15T18:37:06.073Z,54.90
2023-02-15T18:39:44.081Z,50.17
2023-02-15T18:42:28.242Z,84.13
2023-02-15T18:45:01.395Z,54.53
2023-02-15T18:47:29.022Z,44.23
2023-02-15T18:49:56.484Z,59.23
2023-02-15T18:52:27.581Z,41.33
2023-02-15T18:54:58.895Z,58.33
2023-02-15T18:57:26.290Z,67.13
2023-02-15T18:59:54.037Z,56.20
2023-02-15T19:02:21.712Z,49.33
2023-02-15T19:04:49.163Z,53.13
2023-02-15T19:07:23.777Z,60.03
2023-02-15T19:09:54.867Z,57.67
2023-02-15T19:12:22.718Z,59.37
2023-02-15T19:14:52.970Z,68.30
2023-02-15T19:17:22.096Z,83.87
2023-02-15T19:19:51.172Z,63.40
2023-02-15T19:22:28.454Z,56.93
2023-02-15T19:25:00.040Z,48.00
2023-02-15T19:27:35.636Z,48.70
2023-02-15T19:30:31.580Z,58.80
2023-02-15T19:32:59.916Z,38.93
2023-02-15T19:35:32.242Z,45.47
2023-02-15T19:38:05.968Z,45.70
2023-02-15T19:40:35.424Z,39.30
2023-02-15T19:43:03.862Z,52.53
2023-02-15T19:45:32.886Z,41.33
2023-02-15T19:48:06.060Z,46.90
2023-02-15T19:50:35.000Z,87.40
2023-02-15T19:53:03.704Z,66.00
2023-02-15T19:55:35.526Z,74.10
2023-02-15T19:58:03.656Z,49.80
2023-02-15T20:00:33.158Z,60.53
2023-02-15T20:03:01.153Z,36.17
2023-02-15T20:05:30.790Z,42.03
2023-02-15T20:07:59.167Z,36.63
2023-02-15T20:10:27.629Z,51.13
2023-02-15T20:12:55.672Z,36.60
2023-02-15T20:15:28.345Z,61.60
2023-02-15T20:17:57.189Z,58.47
2023-02-15T20:20:32.160Z,45.87
2023-02-15T20:22:59.800Z,60.10
2023-02-15T20:25:29.541Z,56.17
2023-02-15T20:27:59.259Z,165.47
2023-02-15T20:30:29.453Z,118.00
2023-02-15T20:32:56.957Z,74.63
2023-02-15T20:35:28.777Z,77.90
2023-02-15T20:38:02.666Z,87.07
2023-02-15T20:40:33.330Z,51.03
2023-02-15T20:43:01.451Z,63.50
2023-02-15T20:45:30.905Z,56.83
2023-02-15T20:47:59.809Z,46.97
2023-02-15T20:50:30.656Z,51.77
2023-02-15T20:52:59.823Z,53.33
2023-02-15T20:55:30.400Z,61.57
2023-02-15T20:57:58.781Z,51.60
2023-02-15T21:00:28.678Z,53.73
2023-02-15T21:02:58.787Z,53.10
2023-02-15T21:05:32.623Z,68.33
2023-02-15T21:08:01.887Z,65.07
2023-02-15T21:10:32.034Z,86.53
2023-02-15T21:13:00.067Z,196.53
2023-02-15T21:15:33.353Z,78.70
2023-02-15T21:18:06.926Z,69.43
2023-02-15T21:20:35.590Z,66.90
2023-02-15T21:23:04.954Z,74.57
2023-02-15T21:25:36.972Z,74.23
2023-02-15T21:28:05.887Z,86.50
2023-02-15T21:30:33.288Z,56.20
2023-02-15T21:33:00.786Z,66.27
2023-02-15T21:35:29.149Z,74.40
2023-02-15T21:37:57.154Z,83.33
2023-02-15T21:40:28.905Z,69.27
2023-02-15T21:43:14.817Z,68.23
2023-02-15T21:46:08.524Z,56.07
2023-02-15T21:48:36.101Z,81.60
2023-02-15T21:51:22.085Z,65.63
2023-02-15T21:53:49.716Z,65.10
2023-02-15T21:56:20.097Z,67.57
2023-02-15T21:58:48.183Z,66.33
2023-02-15T22:01:24.375Z,61.00
2023-02-15T22:03:53.989Z,57.07
2023-02-15T22:06:21.696Z,63.03
2023-02-15T22:08:49.394Z,59.80
2023-02-15T22:11:20.348Z,48.87
2023-02-15T22:13:48.874Z,68.73
2023-02-15T22:16:19.270Z,52.83
2023-02-15T22:18:47.314Z,61.13
2023-02-15T22:21:16.599Z,79.03
2023-02-15T22:23:43.962Z,73.57
2023-02-15T22:26:24.483Z,74.87
2023-02-15T22:28:51.981Z,66.47
2023-02-15T22:31:23.432Z,66.67
2023-02-15T22:33:51.281Z,46.43
2023-02-15T22:36:27.806Z,53.17
2023-02-15T22:38:55.914Z,52.40
2023-02-15T22:41:29.559Z,62.00
2023-02-15T22:43:57.501Z,55.90
2023-02-15T22:46:26.069Z,59.63
2023-02-15T22:48:54.304Z,54.67
2023-02-15T22:51:24.089Z,49.70
2023-02-15T22:53:52.376Z,60.40
2023-02-15T22:56:26.871Z,66.60
2023-02-15T22:59:01.328Z,57.10
2023-02-15T23:01:33.880Z,61.80
2023-02-15T23:04:03.705Z,66.40
2023-02-15T23:06:32.261Z,55.97
2023-02-15T23:09:00.852Z,60.87
2023-02-15T23:11:28.711Z,58.50
2023-02-15T23:13:56.087Z,65.17
2023-02-15T23:16:23.590Z,58.13
2023-02-15T23:18:51.092Z,63.80
2023-02-15T23:21:22.225Z,54.57
2023-02-15T23:23:52.152Z,47.93
2023-02-15T23:26:28.036Z,58.40
2023-02-15T23:28:57.963Z,54.63
2023-02-15T23:31:33.622Z,67.83
2023-02-15T23:34:03.147Z,73.83
2023-02-15T23:36:31.973Z,68.73
2023-02-15T23:39:39.541Z,49.67
2023-02-15T23:42:14.758Z,60.83
2023-02-15T23:44:43.361Z,49.33
2023-02-15T23:47:46.133Z,68.40
2023-02-15T23:50:21.306Z,58.83
2023-02-15T23:52:50.491Z,59.57
2023-02-15T23:55:18.565Z,85.33
2023-02-15T23:57:46.490Z,80.90
